sensor_id;sensor_type;location;lat;lon;timestamp;P1;durP1;ratioP1;P2;durP2;ratioP2
55663;SDS011;41540;57.880;12.164;2023-04-03T00:03:57;2.83;;;2.58;;
55663;SDS011;41540;57.880;12.164;2023-04-03T00:13:57;5.03;;;3.22;;
55663;SDS011;41540;57.880;12.164;2023-04-03T00:23:57;5.20;;;3.28;;
55663;SDS011;41540;57.880;12.164;2023-04-03T00:33:58;3.45;;;2.30;;
55663;SDS011;41540;57.880;12.164;2023-04-03T00:43:58;3.22;;;2.05;;
55663;SDS011;41540;57.880;12.164;2023-04-03T00:53:59;3.38;;;2.47;;
55663;SDS011;41540;57.880;12.164;2023-04-03T01:04:00;3.63;;;3.08;;
55663;SDS011;41540;57.880;12.164;2023-04-03T01:14:02;3.80;;;2.20;;
55663;SDS011;41540;57.880;12.164;2023-04-03T01:34:12;3.58;;;2.08;;
55663;SDS011;41540;57.880;12.164;2023-04-03T01:44:13;4.43;;;2.10;;
55663;SDS011;41540;57.880;12.164;2023-04-03T01:54:13;5.90;;;2.00;;
55663;SDS011;41540;57.880;12.164;2023-04-03T02:04:13;2.25;;;1.98;;
55663;SDS011;41540;57.880;12.164;2023-04-03T02:14:13;2.42;;;1.75;;
55663;SDS011;41540;57.880;12.164;2023-04-03T02:24:14;2.85;;;2.08;;
55663;SDS011;41540;57.880;12.164;2023-04-03T02:34:14;2.70;;;1.92;;
55663;SDS011;41540;57.880;12.164;2023-04-03T02:44:17;2.97;;;2.53;;
55663;SDS011;41540;57.880;12.164;2023-04-03T02:54:18;2.22;;;1.95;;
55663;SDS011;41540;57.880;12.164;2023-04-03T03:04:19;2.28;;;1.80;;
55663;SDS011;41540;57.880;12.164;2023-04-03T03:14:19;4.40;;;2.33;;
55663;SDS011;41540;57.880;12.164;2023-04-03T03:24:19;4.25;;;2.72;;
55663;SDS011;41540;57.880;12.164;2023-04-03T03:34:20;2.63;;;1.80;;
55663;SDS011;41540;57.880;12.164;2023-04-03T03:44:20;3.15;;;1.50;;
55663;SDS011;41540;57.880;12.164;2023-04-03T03:54:20;2.15;;;1.38;;
55663;SDS011;41540;57.880;12.164;2023-04-03T04:04:21;4.38;;;1.73;;
55663;SDS011;41540;57.880;12.164;2023-04-03T04:14:21;7.35;;;2.28;;
55663;SDS011;41540;57.880;12.164;2023-04-03T04:24:21;1.70;;;1.48;;
55663;SDS011;41540;57.880;12.164;2023-04-03T04:34:22;2.53;;;1.70;;
55663;SDS011;41540;57.880;12.164;2023-04-03T04:44:23;3.83;;;2.10;;
55663;SDS011;41540;57.880;12.164;2023-04-03T04:54:23;1.75;;;1.65;;
55663;SDS011;41540;57.880;12.164;2023-04-03T05:04:23;2.45;;;1.63;;
55663;SDS011;41540;57.880;12.164;2023-04-03T05:14:23;3.00;;;1.40;;
55663;SDS011;41540;57.880;12.164;2023-04-03T05:24:24;2.47;;;1.52;;
55663;SDS011;41540;57.880;12.164;2023-04-03T05:34:24;2.13;;;1.55;;
55663;SDS011;41540;57.880;12.164;2023-04-03T05:44:25;1.95;;;1.33;;
55663;SDS011;41540;57.880;12.164;2023-04-03T05:54:26;1.52;;;1.30;;
55663;SDS011;41540;57.880;12.164;2023-04-03T06:04:26;3.45;;;1.52;;
55663;SDS011;41540;57.880;12.164;2023-04-03T06:14:26;1.83;;;1.73;;
55663;SDS011;41540;57.880;12.164;2023-04-03T06:24:27;1.30;;;1.20;;
55663;SDS011;41540;57.880;12.164;2023-04-03T06:34:27;2.75;;;1.52;;
55663;SDS011;41540;57.880;12.164;2023-04-03T06:44:27;3.38;;;1.67;;
55663;SDS011;41540;57.880;12.164;2023-04-03T06:54:27;3.13;;;1.58;;
55663;SDS011;41540;57.880;12.164;2023-04-03T07:04:28;3.80;;;1.63;;
55663;SDS011;41540;57.880;12.164;2023-04-03T07:14:28;4.30;;;1.85;;
55663;SDS011;41540;57.880;12.164;2023-04-03T07:24:28;2.85;;;1.65;;
55663;SDS011;41540;57.880;12.164;2023-04-03T07:34:28;3.28;;;1.38;;
55663;SDS011;41540;57.880;12.164;2023-04-03T07:44:29;4.18;;;1.42;;
55663;SDS011;41540;57.880;12.164;2023-04-03T07:54:30;5.25;;;4.32;;
55663;SDS011;41540;57.880;12.164;2023-04-03T08:04:30;5.57;;;1.83;;
55663;SDS011;41540;57.880;12.164;2023-04-03T08:14:31;1.65;;;1.38;;
55663;SDS011;41540;57.880;12.164;2023-04-03T08:24:34;1.92;;;1.45;;
55663;SDS011;41540;57.880;12.164;2023-04-03T08:34:34;1.40;;;0.82;;
55663;SDS011;41540;57.880;12.164;2023-04-03T08:44:42;1.75;;;0.90;;
55663;SDS011;41540;57.880;12.164;2023-04-03T08:54:50;1.80;;;0.98;;
55663;SDS011;41540;57.880;12.164;2023-04-03T09:04:51;2.17;;;0.80;;
55663;SDS011;41540;57.880;12.164;2023-04-03T09:45:21;0.90;;;0.90;;
55663;SDS011;41540;57.880;12.164;2023-04-03T09:55:23;2.58;;;1.17;;
55663;SDS011;41540;57.880;12.164;2023-04-03T10:05:39;2.08;;;1.27;;
55663;SDS011;41540;57.880;12.164;2023-04-03T10:15:41;1.92;;;1.10;;
55663;SDS011;41540;57.880;12.164;2023-04-03T10:46:46;2.72;;;1.02;;
55663;SDS011;41540;57.880;12.164;2023-04-03T10:56:48;1.02;;;0.98;;
55663;SDS011;41540;57.880;12.164;2023-04-03T11:06:56;2.13;;;1.20;;
55663;SDS011;41540;57.880;12.164;2023-04-03T11:17:04;2.15;;;1.08;;
55663;SDS011;41540;57.880;12.164;2023-04-03T11:27:05;4.05;;;1.05;;
55663;SDS011;41540;57.880;12.164;2023-04-03T11:37:17;3.40;;;1.60;;
55663;SDS011;41540;57.880;12.164;2023-04-03T11:58:25;1.13;;;1.00;;
55663;SDS011;41540;57.880;12.164;2023-04-03T12:08:23;2.33;;;1.30;;
55663;SDS011;41540;57.880;12.164;2023-04-03T12:18:40;2.60;;;1.13;;
55663;SDS011;41540;57.880;12.164;2023-04-03T12:28:42;3.00;;;1.40;;
55663;SDS011;41540;57.880;12.164;2023-04-03T12:48:56;2.80;;;1.38;;
55663;SDS011;41540;57.880;12.164;2023-04-03T13:09:21;1.50;;;1.15;;
55663;SDS011;41540;57.880;12.164;2023-04-03T13:19:22;1.63;;;1.40;;
55663;SDS011;41540;57.880;12.164;2023-04-03T13:29:48;2.47;;;1.50;;
55663;SDS011;41540;57.880;12.164;2023-04-03T13:39:43;1.33;;;1.23;;
55663;SDS011;41540;57.880;12.164;2023-04-03T13:50:01;3.47;;;1.02;;
55663;SDS011;41540;57.880;12.164;2023-04-03T14:00:18;3.40;;;1.67;;
55663;SDS011;41540;57.880;12.164;2023-04-03T14:10:19;1.30;;;1.20;;
55663;SDS011;41540;57.880;12.164;2023-04-03T14:20:20;1.52;;;1.17;;
55663;SDS011;41540;57.880;12.164;2023-04-03T14:30:26;1.25;;;1.15;;
55663;SDS011;41540;57.880;12.164;2023-04-03T14:40:26;2.13;;;0.80;;
55663;SDS011;41540;57.880;12.164;2023-04-03T14:50:28;5.47;;;1.48;;
55663;SDS011;41540;57.880;12.164;2023-04-03T15:00:28;3.40;;;1.40;;
55663;SDS011;41540;57.880;12.164;2023-04-03T15:10:29;1.38;;;0.95;;
55663;SDS011;41540;57.880;12.164;2023-04-03T15:20:30;1.75;;;1.13;;
55663;SDS011;41540;57.880;12.164;2023-04-03T15:30:33;2.83;;;1.23;;
55663;SDS011;41540;57.880;12.164;2023-04-03T15:40:36;2.15;;;1.55;;
55663;SDS011;41540;57.880;12.164;2023-04-03T15:50:37;2.15;;;1.38;;
55663;SDS011;41540;57.880;12.164;2023-04-03T16:00:37;1.40;;;1.30;;
55663;SDS011;41540;57.880;12.164;2023-04-03T16:10:38;4.18;;;1.58;;
55663;SDS011;41540;57.880;12.164;2023-04-03T16:20:39;3.72;;;1.40;;
55663;SDS011;41540;57.880;12.164;2023-04-03T16:30:43;1.55;;;1.33;;
55663;SDS011;41540;57.880;12.164;2023-04-03T16:40:44;4.47;;;1.85;;
55663;SDS011;41540;57.880;12.164;2023-04-03T16:50:47;3.45;;;1.42;;
55663;SDS011;41540;57.880;12.164;2023-04-03T17:00:53;1.90;;;1.42;;
55663;SDS011;41540;57.880;12.164;2023-04-03T17:10:54;2.65;;;1.42;;
55663;SDS011;41540;57.880;12.164;2023-04-03T17:20:55;2.80;;;1.35;;
55663;SDS011;41540;57.880;12.164;2023-04-03T17:30:56;4.80;;;1.33;;
55663;SDS011;41540;57.880;12.164;2023-04-03T17:40:59;3.95;;;1.52;;
55663;SDS011;41540;57.880;12.164;2023-04-03T17:51:02;4.38;;;1.63;;
55663;SDS011;41540;57.880;12.164;2023-04-03T18:01:06;2.47;;;1.93;;
55663;SDS011;41540;57.880;12.164;2023-04-03T18:11:07;6.70;;;1.70;;
55663;SDS011;41540;57.880;12.164;2023-04-03T18:21:08;5.03;;;2.20;;
55663;SDS011;41540;57.880;12.164;2023-04-03T18:31:09;2.47;;;1.73;;
55663;SDS011;41540;57.880;12.164;2023-04-03T18:41:10;4.65;;;1.73;;
55663;SDS011;41540;57.880;12.164;2023-04-03T18:51:10;2.72;;;2.05;;
55663;SDS011;41540;57.880;12.164;2023-04-03T19:01:11;3.77;;;2.20;;
55663;SDS011;41540;57.880;12.164;2023-04-03T19:11:12;6.85;;;2.13;;
55663;SDS011;41540;57.880;12.164;2023-04-03T19:21:12;2.80;;;1.60;;
55663;SDS011;41540;57.880;12.164;2023-04-03T19:31:14;2.28;;;1.83;;
55663;SDS011;41540;57.880;12.164;2023-04-03T19:41:18;3.78;;;2.25;;
55663;SDS011;41540;57.880;12.164;2023-04-03T19:51:19;2.67;;;2.40;;
55663;SDS011;41540;57.880;12.164;2023-04-03T20:01:20;3.67;;;2.03;;
55663;SDS011;41540;57.880;12.164;2023-04-03T20:11:21;1.98;;;1.63;;
55663;SDS011;41540;57.880;12.164;2023-04-03T20:21:28;4.50;;;1.98;;
55663;SDS011;41540;57.880;12.164;2023-04-03T20:31:29;3.80;;;2.63;;
55663;SDS011;41540;57.880;12.164;2023-04-03T20:41:29;2.72;;;1.70;;
55663;SDS011;41540;57.880;12.164;2023-04-03T20:51:33;5.40;;;1.80;;
55663;SDS011;41540;57.880;12.164;2023-04-03T21:01:34;3.25;;;2.13;;
55663;SDS011;41540;57.880;12.164;2023-04-03T21:21:54;2.05;;;1.73;;
55663;SDS011;41540;57.880;12.164;2023-04-03T21:41:57;5.75;;;2.15;;
55663;SDS011;41540;57.880;12.164;2023-04-03T21:51:58;3.42;;;2.50;;
55663;SDS011;41540;57.880;12.164;2023-04-03T22:01:58;3.38;;;2.22;;
55663;SDS011;41540;57.880;12.164;2023-04-03T22:12:00;6.20;;;2.58;;
55663;SDS011;41540;57.880;12.164;2023-04-03T22:22:01;3.60;;;2.70;;
55663;SDS011;41540;57.880;12.164;2023-04-03T22:32:02;2.67;;;2.00;;
55663;SDS011;41540;57.880;12.164;2023-04-03T22:42:02;5.28;;;4.00;;
55663;SDS011;41540;57.880;12.164;2023-04-03T22:52:04;3.92;;;3.45;;
55663;SDS011;41540;57.880;12.164;2023-04-03T23:02:05;5.13;;;3.20;;
55663;SDS011;41540;57.880;12.164;2023-04-03T23:12:05;5.32;;;2.50;;
55663;SDS011;41540;57.880;12.164;2023-04-03T23:22:08;4.07;;;3.05;;
55663;SDS011;41540;57.880;12.164;2023-04-03T23:32:10;1.90;;;1.70;;
55663;SDS011;41540;57.880;12.164;2023-04-03T23:42:10;3.08;;;2.50;;
55663;SDS011;41540;57.880;12.164;2023-04-03T23:52:11;3.67;;;2.28;;
